Terminal Aerodrome Forecast
Issued by NWS Portland, OR

Home | Current Version | Previous Version | Text Only | Print | Product List | Glossary On
Versions: 1 2 3 4 5 6 7 8 9 10 11 12 13 14 15 16 17 18 19 20 21 22 23 24 25 26 27 28 29 30 31 32 33 34
000
FTUS46 KPQR 062320
TAFTTD
TAF
KTTD 062320Z 0700/0724 00000KT P6SM OVC150
     FM070200 VRB03KT P6SM SCT050 OVC100
     FM070900 VRB04KT P6SM SCT030 OVC050
     FM071200 VRB05KT P6SM BKN030 OVC050
     FM071600 10007KT P6SM FEW030 SCT050=

USA.gov is the U.S. government's official web portal to all federal, state and local government web resources and services.